Portada
METAR-TAF:

METAR-TAF

Aeroports :

Burayda, Aràbia Saudita

latitud: 26-18N, longitud: 043-46E, altitud: 648 m

Observació

L'informe es va fer fa 52 minuts, a les 10:00 UTC
Vent 4 kt del Nord
Temperatura 20°C
Humitat 46%
Pressió 1017 hPa
Visibilitat 10 km o més
sense núvols per sota de 1500 mi sense presència de cumulonimbus.

METAR: OEGS 211000Z 35004KT CAVOK 20/08 Q1017

Hora: 13:52 (10:52 UTC)

Pronòstic

L'informe es va fer fa 11 hores i 52 minuts, a les 23:00 UTC
Pronòstic vàlid del 21 a les 00 UTC al 22 a les 06 UTC
Vent 3 kt amb direcció variable
Visibilitat 10 km o més
sense núvols per sota de 1500 mi sense presència de cumulonimbus.
Evolucionant progressivament
l' 21 a les 06 UTC al 21 a les 08 UTC
Vent 12 kt del Est

TAF: OEGS 202300Z 2100/2206 VRB03KT CAVOK BECMG 2106/2108 09012KT

Observacions i pronòstics meteorològics de més de 4000 aeroports (METAR i TAF).

Les estacions disponibles són els punts grocs i vermells al mapa.

Posi el ratolí al punt desitjat per veure el nom de l'estació.

Feu clic per veure les observacions i els pronòstics meteorològics.

Per canviar el mapa: feu clic els botons verds amb una creu de color negre per apropar; al botó verd amb un guió per allunyar la imatge; o en les fletxes verdes per a mapes adjacents.


METAR-TAF: